Time;durP1;ratioP1;P1;durP2;ratioP2;P2;SDS_P1;SDS_P2;PMS_P1;PMS_P2;Temp;Humidity;BMP_temperature;BMP_pressure;BME280_temperature;BME280_humidity;BME280_pressure;Samples;Min_cycle;Max_cycle;Signal;HPM_P1;HPM_P2
2023/09/23 00:00:51;;;;;;;1.23;0.60;;;;;;;12.20;94.08;149176.19;4895365;29;20319;-61
2023/09/23 00:03:17;;;;;;;1.43;0.50;;;;;;;12.16;93.94;149167.47;4898889;29;20235;-60
2023/09/23 00:05:45;;;;;;;1.10;0.67;;;;;;;12.25;92.42;149189.91;4897645;29;20234;-61
2023/09/23 00:08:12;;;;;;;1.77;0.50;;;;;;;12.22;92.75;149181.16;4897120;28;20581;-60
2023/09/23 00:10:39;;;;;;;3.77;0.63;;;;;;;12.14;93.91;149161.25;4895600;29;20236;-61
2023/09/23 00:13:06;;;;;;;0.73;0.30;;;;;;;12.25;90.78;149189.91;4899196;29;20251;-61
2023/09/23 00:15:40;;;;;;;0.80;0.40;;;;;;;12.24;90.89;149186.16;4896427;29;20225;-60
2023/09/23 00:18:09;;;;;;;2.53;0.77;;;;;;;12.23;92.03;149184.94;4899180;29;20263;-61
2023/09/23 00:20:38;;;;;;;1.43;0.57;;;;;;;12.19;93.31;149173.72;4893556;29;20224;-61
2023/09/23 00:23:06;;;;;;;0.87;0.50;;;;;;;12.17;92.28;149168.75;4897874;28;20235;-61
2023/09/23 00:25:38;;;;;;;0.70;0.50;;;;;;;12.09;92.54;149151.28;4896352;29;20250;-61
2023/09/23 00:28:08;;;;;;;3.23;0.73;;;;;;;12.05;93.53;149140.03;4897053;28;20239;-61
2023/09/23 00:30:38;;;;;;;1.20;0.50;;;;;;;11.98;93.48;149122.53;4893192;29;20475;-61
2023/09/23 00:33:05;;;;;;;2.80;0.40;;;;;;;11.98;91.77;149122.53;4899248;28;20234;-61
2023/09/23 00:35:41;;;;;;;0.60;0.37;;;;;;;12.03;92.37;149135.06;4892725;29;20612;-60
2023/09/23 00:38:08;;;;;;;4.97;0.63;;;;;;;11.99;91.77;149126.31;4895735;29;20426;-61
2023/09/23 00:40:38;;;;;;;0.50;0.30;;;;;;;12.00;92.75;149128.84;4913752;29;20279;-61
2023/09/23 00:43:11;;;;;;;0.30;0.20;;;;;;;11.90;92.81;149105.09;4896359;28;20237;-60
2023/09/23 00:45:39;;;;;;;0.60;0.37;;;;;;;11.88;94.17;149100.09;4909265;29;20999;-60
2023/09/23 00:48:08;;;;;;;3.07;0.40;;;;;;;11.83;93.82;149087.63;4897486;29;20250;-61
2023/09/23 00:50:43;;;;;;;2.33;0.40;;;;;;;11.84;93.80;149088.91;4891648;29;20235;-60
2023/09/23 00:53:10;;;;;;;0.73;0.50;;;;;;;11.91;92.84;149107.59;4896817;29;20422;-60
2023/09/23 00:55:42;;;;;;;1.00;0.60;;;;;;;11.96;93.17;149120.06;4908836;29;20769;-60
2023/09/23 00:58:14;;;;;;;0.57;0.30;;;;;;;11.87;93.36;149096.38;4897575;29;20248;-60
2023/09/23 01:00:43;;;;;;;0.70;0.40;;;;;;;11.81;96.27;149082.66;4903080;29;20232;-61
2023/09/23 01:03:10;;;;;;;2.53;0.83;;;;;;;11.72;95.00;149060.22;4913231;29;20307;-61
2023/09/23 01:05:40;;;;;;;2.47;0.60;;;;;;;11.76;93.58;149071.47;4908714;29;20231;-60
2023/09/23 01:08:18;;;;;;;1.23;0.40;;;;;;;11.98;92.83;149122.53;4910762;29;20699;-61
2023/09/23 01:10:45;;;;;;;1.43;0.40;;;;;;;11.99;91.92;149126.31;4896049;29;20338;-60
2023/09/23 01:13:12;;;;;;;1.53;0.40;;;;;;;11.97;91.44;149121.31;4904596;29;20347;-60
2023/09/23 01:15:40;;;;;;;2.33;0.70;;;;;;;12.03;90.89;149136.34;4893138;29;20903;-61
2023/09/23 01:18:13;;;;;;;2.27;0.40;;;;;;;11.96;90.42;149120.06;4913876;29;20235;-60
2023/09/23 01:20:42;;;;;;;1.53;0.50;;;;;;;12.06;91.00;149143.81;4902435;29;20225;-60
2023/09/23 01:23:12;;;;;;;1.53;0.57;;;;;;;11.91;91.98;149106.34;4892886;29;20332;-60
2023/09/23 01:25:38;;;;;;;0.60;0.37;;;;;;;12.24;89.40;149187.44;4889700;29;20228;-61
2023/09/23 01:28:11;;;;;;;2.03;0.50;;;;;;;12.05;90.34;149141.31;4900872;29;20577;-60
2023/09/23 01:30:39;;;;;;;1.50;0.60;;;;;;;12.08;92.28;149147.53;4888028;29;20231;-61
2023/09/23 01:33:08;;;;;;;1.63;0.30;;;;;;;11.95;90.17;149116.34;4913748;29;20250;-61
2023/09/23 01:35:38;;;;;;;4.70;1.43;;;;;;;11.98;90.77;149122.53;4911058;29;20311;-61
2023/09/23 01:38:05;;;;;;;2.70;0.40;;;;;;;11.96;90.36;149120.06;4898689;29;20240;-61
2023/09/23 01:40:40;;;;;;;1.90;0.40;;;;;;;12.03;90.48;149135.06;4899393;29;20232;-61
2023/09/23 01:43:09;;;;;;;0.87;0.33;;;;;;;11.88;91.22;149098.88;4901821;28;20242;-61
2023/09/23 01:45:38;;;;;;;2.03;0.63;;;;;;;11.91;91.41;149106.34;4914969;29;20226;-61
2023/09/23 01:48:05;;;;;;;1.07;0.50;;;;;;;12.32;89.98;149204.88;4903093;29;20357;-61
2023/09/23 01:50:58;;;;;;;1.73;0.47;;;;;;;12.21;90.64;149179.94;4897485;29;20238;-61
2023/09/23 01:53:26;;;;;;;0.97;0.70;;;;;;;11.99;90.09;149125.03;4897391;29;20227;-61
2023/09/23 01:55:54;;;;;;;0.57;0.30;;;;;;;11.89;91.42;149102.59;4912237;29;20239;-61
2023/09/23 01:58:23;;;;;;;3.70;0.40;;;;;;;11.91;90.87;149106.34;4900411;29;20222;-60
2023/09/23 02:00:51;;;;;;;1.83;0.60;;;;;;;11.81;91.19;149083.91;4905364;29;20963;-61
2023/09/23 02:03:18;;;;;;;1.57;0.60;;;;;;;11.61;91.50;149035.34;4896465;29;20294;-61
2023/09/23 02:05:47;;;;;;;1.50;0.50;;;;;;;11.50;92.43;149009.13;4909715;29;20237;-60
2023/09/23 02:08:14;;;;;;;1.17;0.80;;;;;;;11.51;92.25;149010.41;4900436;29;20763;-60
2023/09/23 02:10:44;;;;;;;1.03;0.50;;;;;;;11.76;90.67;149070.19;4900455;29;20664;-61
2023/09/23 02:13:12;;;;;;;0.87;0.50;;;;;;;11.60;92.68;149032.84;4899714;29;20237;-60
2023/09/23 02:15:39;;;;;;;1.83;0.60;;;;;;;11.62;90.77;149037.81;4887361;29;20236;-60
2023/09/23 02:18:06;;;;;;;4.20;0.57;;;;;;;11.53;92.20;149015.38;4915896;29;20244;-60
2023/09/23 02:20:40;;;;;;;2.47;0.50;;;;;;;11.55;92.32;149020.38;4905637;29;20325;-61
2023/09/23 02:23:06;;;;;;;0.73;0.37;;;;;;;11.63;91.93;149040.31;4913575;29;20246;-60
2023/09/23 02:25:38;;;;;;;0.73;0.40;;;;;;;11.69;90.05;149052.75;4913144;29;20229;-60
2023/09/23 02:28:03;;;;;;;0.50;0.40;;;;;;;11.72;92.12;149061.47;4913151;29;20296;-60
2023/09/23 02:30:56;;;;;;;2.20;0.63;;;;;;;11.67;90.63;149050.25;4896784;29;20257;-61
2023/09/23 02:33:26;;;;;;;2.57;0.50;;;;;;;11.74;90.48;149065.19;4912711;29;20242;-61
2023/09/23 02:35:53;;;;;;;1.73;0.40;;;;;;;11.75;90.14;149068.97;4900231;29;20235;-61
2023/09/23 02:38:21;;;;;;;3.50;0.50;;;;;;;12.01;90.44;149131.34;4907393;29;20257;-61
2023/09/23 02:40:50;;;;;;;2.03;0.50;;;;;;;11.81;90.71;149083.91;4910651;29;20235;-61
2023/09/23 02:43:19;;;;;;;0.60;0.40;;;;;;;11.85;89.47;149091.41;4898676;29;20240;-61
2023/09/23 02:45:47;;;;;;;1.40;0.50;;;;;;;11.74;91.81;149065.19;4898733;29;20351;-60
2023/09/23 02:48:15;;;;;;;1.73;0.47;;;;;;;11.63;91.58;149040.31;4912992;29;20243;-60
2023/09/23 02:50:42;;;;;;;1.67;0.47;;;;;;;11.69;94.02;149052.75;4895891;29;20239;-61
2023/09/23 02:53:10;;;;;;;2.00;0.50;;;;;;;11.60;94.28;149032.84;4911236;29;20239;-60
2023/09/23 02:55:41;;;;;;;2.70;0.53;;;;;;;11.57;91.34;149024.09;4898155;29;20232;-61
2023/09/23 02:58:08;;;;;;;0.50;0.40;;;;;;;11.76;90.39;149070.19;4906626;29;20327;-61
2023/09/23 03:00:40;;;;;;;1.60;0.40;;;;;;;11.62;91.06;149036.56;4891887;29;20265;-58
2023/09/23 03:03:12;;;;;;;3.33;0.57;;;;;;;11.84;89.49;149088.91;4912548;28;20242;-60
2023/09/23 03:05:44;;;;;;;1.03;0.40;;;;;;;11.78;90.10;149076.44;4901518;29;20229;-59
2023/09/23 03:08:13;;;;;;;2.27;0.63;;;;;;;11.83;87.48;149087.63;4898565;29;20324;-61
2023/09/23 03:10:44;;;;;;;4.77;0.50;;;;;;;11.91;88.50;149106.34;4914057;29;20226;-61
2023/09/23 03:13:11;;;;;;;1.40;0.53;;;;;;;11.84;88.02;149088.91;4896369;28;20588;-60
2023/09/23 03:15:44;;;;;;;0.67;0.37;;;;;;;11.94;86.46;149113.84;4892925;29;20318;-61
2023/09/23 03:18:10;;;;;;;2.67;0.60;;;;;;;12.03;87.71;149135.06;4889343;29;20350;-61
2023/09/23 03:20:40;;;;;;;1.90;0.60;;;;;;;11.99;86.81;149126.31;4909842;29;20231;-60
2023/09/23 03:23:10;;;;;;;1.40;0.30;;;;;;;11.90;86.68;149103.88;4897913;29;20333;-61
2023/09/23 03:25:45;;;;;;;0.80;0.40;;;;;;;11.97;87.03;149121.31;4910877;29;20254;-61
2023/09/23 03:28:15;;;;;;;2.90;0.40;;;;;;;11.89;88.61;149101.38;4896153;29;20237;-60
2023/09/23 03:30:47;;;;;;;1.33;0.40;;;;;;;11.85;89.17;149092.63;5141088;23;20209;-61
2023/09/23 03:33:15;;;;;;;0.80;0.43;;;;;;;11.79;87.81;149078.94;4936349;28;20688;-61
2023/09/23 03:35:44;;;;;;;6.03;0.47;;;;;;;11.91;87.30;149107.59;4939343;28;20220;-60
2023/09/23 03:38:11;;;;;;;1.10;0.60;;;;;;;11.88;86.28;149100.09;4918242;28;20310;-61
2023/09/23 03:40:38;;;;;;;2.17;0.60;;;;;;;11.95;85.12;149117.56;4930062;28;20226;-60
2023/09/23 03:43:05;;;;;;;1.93;0.50;;;;;;;11.80;87.94;149081.44;4915807;28;20239;-61
2023/09/23 03:45:57;;;;;;;1.23;0.47;;;;;;;11.94;87.14;149113.84;4895976;28;20595;-60
2023/09/23 03:48:23;;;;;;;2.10;0.70;;;;;;;11.86;86.94;149095.13;4910349;29;20233;-61
2023/09/23 03:50:53;;;;;;;1.20;0.60;;;;;;;11.81;86.63;149082.66;4905212;28;20226;-60
2023/09/23 03:53:21;;;;;;;2.73;0.40;;;;;;;11.77;87.10;149073.94;4899445;29;20236;-60
2023/09/23 03:55:49;;;;;;;1.80;0.50;;;;;;;11.79;89.08;149078.94;4912276;28;20220;-61
2023/09/23 03:58:17;;;;;;;1.47;0.60;;;;;;;11.86;89.36;149095.13;4916117;28;20264;-61
2023/09/23 04:00:44;;;;;;;2.07;0.50;;;;;;;11.86;87.55;149095.13;4911328;28;20251;-61
2023/09/23 04:03:10;;;;;;;2.20;0.77;;;;;;;12.01;84.51;149131.34;4908479;29;20235;-61
2023/09/23 04:05:38;;;;;;;0.90;0.40;;;;;;;11.93;85.35;149112.56;4921082;28;20564;-60
2023/09/23 04:08:07;;;;;;;6.90;1.30;;;;;;;11.84;85.50;149088.91;4913597;29;20220;-61
2023/09/23 04:10:39;;;;;;;1.17;0.40;;;;;;;11.88;84.28;149098.88;4904532;28;20297;-61
2023/09/23 04:13:06;;;;;;;3.80;0.70;;;;;;;11.73;87.83;149063.97;4911208;28;20241;-60
2023/09/23 04:15:39;;;;;;;2.40;0.70;;;;;;;11.52;88.78;149012.91;4906723;28;20269;-60
2023/09/23 04:18:06;;;;;;;2.07;0.80;;;;;;;11.79;87.06;149077.66;4905184;28;20236;-60
2023/09/23 04:20:38;;;;;;;1.20;0.43;;;;;;;11.74;86.06;149065.19;4908320;28;20239;-60
2023/09/23 04:23:06;;;;;;;1.60;0.67;;;;;;;11.56;88.69;149021.59;4904090;28;20242;-59
2023/09/23 04:25:39;;;;;;;3.20;0.50;;;;;;;11.45;88.97;148995.44;4910048;28;20230;-60
2023/09/23 04:28:06;;;;;;;3.27;0.43;;;;;;;11.37;88.11;148978.00;4907107;28;20241;-60
2023/09/23 04:30:38;;;;;;;0.77;0.57;;;;;;;11.57;87.32;149025.34;4905905;28;20325;-60
2023/09/23 04:33:05;;;;;;;2.20;0.60;;;;;;;11.46;88.11;148999.16;4908956;28;20238;-60
2023/09/23 04:35:58;;;;;;;1.70;0.40;;;;;;;11.29;89.38;148958.06;4908190;28;20242;-60
2023/09/23 04:38:25;;;;;;;2.43;0.50;;;;;;;11.42;88.93;148987.97;4900648;28;20266;-60
2023/09/23 04:40:53;;;;;;;1.80;0.47;;;;;;;11.52;87.96;149012.91;4893880;28;20313;-60
2023/09/23 04:43:20;;;;;;;4.63;0.50;;;;;;;11.52;86.20;149012.91;4903843;28;20624;-59
2023/09/23 04:45:48;;;;;;;3.00;0.57;;;;;;;11.69;86.38;149054.00;4903457;28;20292;-59
2023/09/23 04:48:18;;;;;;;2.00;0.40;;;;;;;11.81;82.87;149083.91;4904153;28;20242;-59
2023/09/23 04:50:46;;;;;;;0.70;0.50;;;;;;;11.65;83.57;149044.03;4909911;28;20223;-59
2023/09/23 04:53:12;;;;;;;2.90;0.53;;;;;;;11.58;84.45;149026.59;4908705;28;20329;-59
2023/09/23 04:55:40;;;;;;;1.27;0.57;;;;;;;11.88;84.33;149098.88;4908678;28;20234;-59
2023/09/23 04:58:10;;;;;;;2.37;0.60;;;;;;;11.72;81.92;149060.22;4906430;28;20734;-59
2023/09/23 05:00:38;;;;;;;1.23;0.43;;;;;;;11.60;83.45;149031.56;4907984;28;20718;-59
2023/09/23 05:03:05;;;;;;;2.00;0.60;;;;;;;11.51;84.60;149011.63;4910597;29;20238;-60
2023/09/23 05:05:38;;;;;;;0.87;0.50;;;;;;;11.50;83.74;149007.91;4909565;28;20238;-60
2023/09/23 05:08:09;;;;;;;1.57;0.30;;;;;;;11.65;84.46;149044.03;4899054;28;20234;-60
2023/09/23 05:10:41;;;;;;;2.37;0.50;;;;;;;11.56;83.98;149021.59;4907242;28;20218;-60
2023/09/23 05:13:09;;;;;;;1.23;0.50;;;;;;;11.38;84.90;148979.22;4911169;28;20493;-60
2023/09/23 05:15:38;;;;;;;3.03;0.40;;;;;;;11.34;85.57;148970.53;4911633;28;20310;-60
2023/09/23 05:18:09;;;;;;;2.67;0.50;;;;;;;11.19;87.41;148933.13;4914198;28;20238;-59
2023/09/23 05:20:38;;;;;;;2.10;0.70;;;;;;;11.28;85.94;148955.56;4908630;28;20227;-60
2023/09/23 05:23:06;;;;;;;1.10;0.53;;;;;;;11.14;86.40;148921.91;4912239;28;20238;-64
2023/09/23 05:25:40;;;;;;;1.30;0.50;;;;;;;11.15;87.04;148924.41;4913310;28;20626;-61
2023/09/23 05:28:06;;;;;;;4.87;0.60;;;;;;;11.24;85.87;148945.59;4911843;28;20237;-61
2023/09/23 05:30:39;;;;;;;2.00;0.60;;;;;;;11.36;86.30;148975.50;4906821;28;20616;-60
2023/09/23 05:33:06;;;;;;;1.47;0.50;;;;;;;11.25;87.45;148948.09;4895628;28;20322;-61
2023/09/23 05:35:39;;;;;;;2.60;0.60;;;;;;;11.25;88.48;148946.81;4899714;28;20250;-60
2023/09/23 05:38:05;;;;;;;2.30;0.60;;;;;;;11.30;86.62;148960.56;4913311;28;20288;-61
2023/09/23 05:40:38;;;;;;;2.63;0.50;;;;;;;11.18;88.41;148930.66;4901936;28;20228;-60
2023/09/23 05:43:06;;;;;;;1.17;0.60;;;;;;;11.18;87.70;148930.66;4909702;28;20247;-60
2023/09/23 05:45:39;;;;;;;0.83;0.43;;;;;;;11.22;88.24;148941.84;4906901;28;20239;-60
2023/09/23 05:48:06;;;;;;;3.37;0.60;;;;;;;11.20;87.87;148936.84;4909620;28;20552;-61
2023/09/23 05:50:38;;;;;;;0.77;0.50;;;;;;;11.25;87.03;148946.81;4910173;28;20230;-60
2023/09/23 05:53:04;;;;;;;1.57;0.50;;;;;;;11.20;89.17;148935.63;4911344;28;20234;-60
2023/09/23 05:55:56;;;;;;;1.73;0.40;;;;;;;11.29;88.02;148958.06;4911585;28;20242;-61
2023/09/23 05:58:23;;;;;;;2.27;0.67;;;;;;;11.56;86.34;149021.59;4914222;28;20230;-61
2023/09/23 06:00:51;;;;;;;2.40;0.60;;;;;;;11.65;85.14;149044.03;4904886;28;20642;-60
2023/09/23 06:03:18;;;;;;;3.50;0.73;;;;;;;11.52;86.64;149014.13;4899770;29;20240;-59
2023/09/23 06:05:45;;;;;;;1.97;0.63;;;;;;;11.62;87.94;149036.56;4908450;28;20230;-60
2023/09/23 06:08:13;;;;;;;3.17;0.90;;;;;;;11.73;86.10;149063.97;4909635;28;20346;-60
2023/09/23 06:10:40;;;;;;;1.93;0.73;;;;;;;11.66;86.53;149046.53;4905188;28;20293;-59
2023/09/23 06:13:07;;;;;;;0.77;0.47;;;;;;;11.68;86.19;149051.50;4914907;28;20240;-60
2023/09/23 06:15:38;;;;;;;0.93;0.60;;;;;;;11.89;83.86;149101.38;4911218;28;20310;-60
2023/09/23 06:18:06;;;;;;;3.10;0.57;;;;;;;11.88;85.23;149098.88;4909077;28;20251;-60
2023/09/23 06:20:38;;;;;;;1.53;0.50;;;;;;;11.92;84.76;149108.84;4905995;28;20323;-60
2023/09/23 06:23:05;;;;;;;2.30;0.50;;;;;;;11.90;85.73;149105.09;4903997;28;20743;-59
2023/09/23 06:25:59;;;;;;;4.23;0.83;;;;;;;12.02;84.55;149132.56;4908622;28;20264;-59
2023/09/23 06:28:26;;;;;;;3.60;0.60;;;;;;;12.04;84.50;149137.56;4913899;28;20728;-59
2023/09/23 06:30:53;;;;;;;4.17;0.60;;;;;;;12.03;84.33;149135.06;4896978;28;20234;-59
2023/09/23 06:33:21;;;;;;;1.53;0.43;;;;;;;12.14;82.73;149161.25;4910768;28;20239;-59
2023/09/23 06:35:49;;;;;;;3.13;0.73;;;;;;;12.21;83.76;149178.69;4911241;28;20368;-59
2023/09/23 06:38:16;;;;;;;2.47;0.40;;;;;;;12.23;83.23;149183.66;4913726;28;20258;-60
2023/09/23 06:40:43;;;;;;;3.37;0.50;;;;;;;12.22;82.98;149181.16;4913608;28;20223;-61
2023/09/23 06:43:10;;;;;;;3.13;0.50;;;;;;;12.21;82.68;149178.69;4910189;28;20242;-60
2023/09/23 06:45:38;;;;;;;1.20;0.60;;;;;;;12.23;82.98;149183.66;4912893;28;20218;-59
2023/09/23 06:48:06;;;;;;;1.87;0.50;;;;;;;12.18;82.62;149172.47;4912164;28;20242;-60
2023/09/23 06:50:39;;;;;;;1.80;0.60;;;;;;;12.19;82.50;149174.97;4908149;28;20226;-59
2023/09/23 06:53:06;;;;;;;0.90;0.50;;;;;;;12.22;83.44;149181.16;4912274;28;20778;-60
2023/09/23 06:55:38;;;;;;;1.03;0.50;;;;;;;12.23;83.40;149184.94;4910330;28;20225;-58
2023/09/23 06:58:05;;;;;;;3.00;0.80;;;;;;;12.27;83.73;149192.41;4912567;28;20341;-60
2023/09/23 07:00:56;;;;;;;2.13;0.90;;;;;;;12.16;85.50;149166.25;4893638;28;20268;-60
2023/09/23 07:03:22;;;;;;;3.43;0.90;;;;;;;12.12;87.03;149156.28;4898138;28;20590;-59
2023/09/23 07:05:50;;;;;;;5.67;0.70;;;;;;;12.15;86.47;149163.75;4910197;28;20230;-60
2023/09/23 07:08:17;;;;;;;2.40;0.90;;;;;;;12.26;85.34;149191.16;4910602;28;20236;-60
2023/09/23 07:10:44;;;;;;;4.30;0.70;;;;;;;12.16;84.59;149166.25;4909299;28;20239;-60
2023/09/23 07:13:10;;;;;;;0.90;0.60;;;;;;;12.14;86.45;149162.50;4911766;28;20224;-59
2023/09/23 07:15:39;;;;;;;2.60;0.50;;;;;;;12.13;87.68;149158.78;4912097;28;20241;-60
2023/09/23 07:18:06;;;;;;;3.27;0.50;;;;;;;12.19;88.50;149174.97;4910708;28;20618;-59
2023/09/23 07:20:38;;;;;;;1.60;0.57;;;;;;;12.15;86.98;149163.75;4911500;28;20224;-60
2023/09/23 07:23:06;;;;;;;1.20;0.60;;;;;;;12.24;86.39;149187.44;4911677;28;20237;-60
2023/09/23 07:25:39;;;;;;;3.67;0.90;;;;;;;12.26;86.52;149191.16;4910699;28;20626;-60
2023/09/23 07:28:07;;;;;;;3.67;1.07;;;;;;;12.33;86.33;149208.59;4907583;28;20234;-60
2023/09/23 07:30:38;;;;;;;2.00;0.80;;;;;;;12.36;86.74;149214.84;4907576;28;20556;-60
2023/09/23 07:33:05;;;;;;;2.13;0.60;;;;;;;12.41;86.70;149227.31;4911626;29;20242;-59
2023/09/23 07:35:38;;;;;;;0.93;0.70;;;;;;;12.42;87.64;149228.56;4904660;28;20227;-59
2023/09/23 07:38:06;;;;;;;2.53;0.67;;;;;;;12.51;87.91;149252.28;4913155;28;20235;-59
2023/09/23 07:40:40;;;;;;;2.33;0.60;;;;;;;12.66;84.75;149288.41;4867168;28;20249;-60
2023/09/23 07:43:07;;;;;;;3.00;0.67;;;;;;;12.73;85.86;149304.59;4908843;28;20227;-59
2023/09/23 07:45:38;;;;;;;3.03;0.70;;;;;;;12.85;86.24;149334.53;4907810;28;20239;-60
2023/09/23 07:48:07;;;;;;;1.27;0.53;;;;;;;12.93;86.93;149352.00;4907883;29;20310;-61
2023/09/23 07:50:38;;;;;;;3.00;0.60;;;;;;;12.96;86.97;149359.50;4911204;28;20223;-60
2023/09/23 07:53:07;;;;;;;1.87;0.70;;;;;;;13.09;85.55;149391.94;4912352;28;20239;-60
2023/09/23 07:55:38;;;;;;;2.17;0.50;;;;;;;13.25;81.79;149430.59;4905251;28;20293;-61
2023/09/23 07:58:05;;;;;;;3.80;1.10;;;;;;;13.37;83.65;149458.03;4908782;28;20672;-60
2023/09/23 08:00:38;;;;;;;3.23;0.77;;;;;;;13.49;83.35;149488.03;4903070;28;20282;-60
2023/09/23 08:03:05;;;;;;;2.90;0.80;;;;;;;13.56;83.39;149504.28;4908843;29;20234;-59
2023/09/23 08:05:39;;;;;;;1.80;0.60;;;;;;;13.69;77.37;149535.47;4906635;28;20213;-60
2023/09/23 08:08:07;;;;;;;2.23;0.80;;;;;;;13.76;79.10;149552.94;4904242;29;20248;-60
2023/09/23 08:10:38;;;;;;;4.43;0.70;;;;;;;13.85;79.02;149574.13;4903882;28;20223;-61
2023/09/23 08:13:05;;;;;;;2.03;0.70;;;;;;;13.96;77.02;149600.38;4905994;29;20228;-61
2023/09/23 08:15:58;;;;;;;1.83;0.60;;;;;;;14.03;76.25;149619.06;4903408;28;20244;-58
2023/09/23 08:18:25;;;;;;;1.60;0.53;;;;;;;14.12;75.71;149640.31;4915745;28;20635;-60
2023/09/23 08:20:57;;;;;;;4.20;0.63;;;;;;;14.13;73.84;149642.81;4906060;28;20537;-61
2023/09/23 08:23:25;;;;;;;2.70;0.73;;;;;;;14.24;74.57;149667.78;4912395;28;20309;-60
2023/09/23 08:25:52;;;;;;;1.33;0.50;;;;;;;14.36;74.76;149696.47;4907769;28;20229;-60
2023/09/23 08:28:19;;;;;;;1.93;0.50;;;;;;;14.31;73.42;149685.22;4902129;28;20235;-60
2023/09/23 08:30:46;;;;;;;2.93;0.50;;;;;;;14.45;72.61;149718.94;4908645;28;20733;-60
2023/09/23 08:33:13;;;;;;;1.23;0.50;;;;;;;14.54;72.83;149741.41;4909184;28;20629;-60
2023/09/23 08:35:41;;;;;;;1.20;0.50;;;;;;;14.60;73.45;149756.41;4907445;28;20220;-60
2023/09/23 08:38:08;;;;;;;0.80;0.50;;;;;;;14.72;73.24;149785.16;4911131;28;20583;-60
2023/09/23 08:40:40;;;;;;;1.30;0.60;;;;;;;14.71;72.64;149781.44;4908890;28;20223;-60
2023/09/23 08:43:07;;;;;;;1.23;0.50;;;;;;;14.73;72.18;149786.41;4907882;28;20234;-60
2023/09/23 08:45:42;;;;;;;1.10;0.60;;;;;;;14.80;71.98;149803.91;4902376;28;20366;-59
2023/09/23 08:48:11;;;;;;;1.23;0.53;;;;;;;14.84;71.60;149812.63;4909649;28;20240;-61
2023/09/23 08:50:42;;;;;;;1.60;0.50;;;;;;;14.86;71.74;149818.84;4906927;28;20225;-58
2023/09/23 08:53:09;;;;;;;2.77;0.70;;;;;;;14.97;71.42;149843.81;4896396;28;20245;-60
2023/09/23 08:55:39;;;;;;;3.57;0.70;;;;;;;14.85;70.45;149816.34;4901269;28;20223;-60
2023/09/23 08:58:06;;;;;;;1.30;0.70;;;;;;;14.88;69.95;149822.63;4921967;28;20274;-60
2023/09/23 09:00:44;;;;;;;1.37;0.67;;;;;;;14.71;71.11;149782.66;4910916;28;20224;-60
2023/09/23 09:03:11;;;;;;;1.60;0.60;;;;;;;14.98;72.01;149846.31;4912942;28;20586;-60
2023/09/23 09:05:39;;;;;;;1.87;0.60;;;;;;;15.00;71.57;149851.31;4908973;28;20230;-60
2023/09/23 09:08:06;;;;;;;3.23;0.60;;;;;;;15.01;70.72;149853.81;4913437;28;20234;-60
2023/09/23 09:10:40;;;;;;;2.90;0.60;;;;;;;15.00;70.52;149852.59;4907080;28;20233;-60
2023/09/23 09:13:08;;;;;;;2.63;0.60;;;;;;;15.04;70.93;149862.59;4910433;28;20327;-61
2023/09/23 09:15:38;;;;;;;1.60;0.70;;;;;;;14.93;72.86;149833.84;4913372;28;20283;-59
2023/09/23 09:18:06;;;;;;;1.40;0.57;;;;;;;14.96;70.82;149841.31;4916199;28;20247;-59
2023/09/23 09:20:39;;;;;;;1.20;0.50;;;;;;;14.85;73.08;149816.34;4914163;28;20618;-59
2023/09/23 09:23:07;;;;;;;2.47;0.70;;;;;;;14.91;71.11;149831.34;4911677;28;20230;-59
2023/09/23 09:25:47;;;;;;;2.43;0.67;;;;;;;14.91;71.88;149831.34;4911227;28;20311;-59
2023/09/23 09:28:16;;;;;;;1.13;0.57;;;;;;;15.01;72.08;149853.81;4914813;28;20316;-58
2023/09/23 09:30:44;;;;;;;1.23;0.50;;;;;;;15.16;73.27;149890.06;4907085;28;20225;-59
2023/09/23 09:33:15;;;;;;;2.80;0.80;;;;;;;15.29;70.09;149922.53;4926825;28;20246;-60
2023/09/23 09:35:41;;;;;;;0.60;0.40;;;;;;;15.22;70.89;149903.78;4907709;28;20224;-60
2023/09/23 09:38:11;;;;;;;2.10;0.70;;;;;;;15.42;71.58;149952.50;4911271;29;20243;-60
2023/09/23 09:40:40;;;;;;;1.23;0.60;;;;;;;15.54;69.99;149982.47;4910311;28;20241;-60
2023/09/23 09:43:07;;;;;;;1.83;0.70;;;;;;;15.56;72.23;149987.47;4912542;28;20241;-61
2023/09/23 09:45:40;;;;;;;2.30;0.67;;;;;;;15.44;69.99;149958.75;4909664;28;20727;-59
2023/09/23 09:48:08;;;;;;;1.77;0.50;;;;;;;15.57;68.41;149988.75;4906605;28;20296;-59
2023/09/23 09:50:40;;;;;;;2.97;0.70;;;;;;;15.52;68.77;149977.47;4919674;28;20232;-59
2023/09/23 09:53:06;;;;;;;1.50;0.40;;;;;;;15.47;69.18;149964.97;4901490;28;21199;-59
2023/09/23 09:55:40;;;;;;;2.13;0.80;;;;;;;15.65;67.10;150009.97;4897415;28;20682;-60
2023/09/23 09:58:07;;;;;;;1.27;0.50;;;;;;;15.71;65.04;150023.72;4908188;28;20729;-59
2023/09/23 10:00:42;;;;;;;3.20;0.60;;;;;;;15.70;67.86;150019.97;4923732;28;20250;-60
2023/09/23 10:03:12;;;;;;;1.47;0.63;;;;;;;15.87;66.23;150062.50;4911414;28;20601;-59
2023/09/23 10:05:43;;;;;;;3.70;0.70;;;;;;;15.82;61.59;150049.94;4906504;28;20248;-60
2023/09/23 10:08:12;;;;;;;1.97;0.60;;;;;;;15.79;64.02;150043.72;4913038;28;20262;-62
2023/09/23 10:10:47;;;;;;;2.40;0.90;;;;;;;15.73;63.74;150028.72;4908034;28;20224;-60
2023/09/23 10:13:14;;;;;;;6.67;0.90;;;;;;;15.76;63.49;150034.97;4907492;28;20240;-61
2023/09/23 10:15:41;;;;;;;3.80;0.70;;;;;;;15.88;62.91;150063.78;4900464;28;20230;-60
2023/09/23 10:18:13;;;;;;;1.67;0.60;;;;;;;15.84;63.63;150054.94;4909611;29;20239;-60
2023/09/23 10:20:48;;;;;;;2.87;0.80;;;;;;;16.04;62.53;150103.72;4902526;28;20381;-61
2023/09/23 10:23:16;;;;;;;1.80;0.60;;;;;;;16.17;61.81;150133.72;4910005;28;20228;-60
2023/09/23 10:25:46;;;;;;;2.73;0.60;;;;;;;16.32;62.42;150171.22;4907732;28;20334;-60
2023/09/23 10:28:22;;;;;;;3.00;0.70;;;;;;;16.38;62.98;150185.00;4910276;28;20286;-60
2023/09/23 10:30:59;;;;;;;1.83;0.60;;;;;;;16.52;64.66;150219.94;4905159;28;20220;-62
2023/09/23 10:33:27;;;;;;;3.93;0.93;;;;;;;16.46;61.32;150203.72;4905461;28;20230;-60
2023/09/23 10:35:56;;;;;;;1.67;0.60;;;;;;;16.62;61.34;150242.44;4908486;28;20238;-60
2023/09/23 10:38:23;;;;;;;1.40;0.77;;;;;;;16.73;61.58;150269.97;4911235;28;20220;-59
2023/09/23 10:40:53;;;;;;;2.70;0.77;;;;;;;16.79;64.84;150284.97;4907470;28;20559;-60
2023/09/23 10:43:21;;;;;;;3.43;0.83;;;;;;;16.92;62.23;150316.25;4899984;28;20775;-59
2023/09/23 10:45:48;;;;;;;2.87;0.90;;;;;;;16.86;61.70;150301.25;4898820;28;20755;-60
2023/09/23 10:48:16;;;;;;;4.00;0.80;;;;;;;16.86;62.56;150301.25;4915591;28;20717;-59
2023/09/23 10:50:43;;;;;;;1.00;0.70;;;;;;;16.92;61.22;150314.97;4906623;28;20235;-59
2023/09/23 10:53:10;;;;;;;5.13;0.77;;;;;;;17.00;62.23;150335.03;4897700;28;20232;-60
2023/09/23 10:55:39;;;;;;;1.30;0.50;;;;;;;17.13;61.41;150365.06;4909523;28;20232;-59
2023/09/23 10:58:08;;;;;;;2.60;0.80;;;;;;;17.19;60.89;150381.28;4912310;28;20246;-59
2023/09/23 11:00:39;;;;;;;1.63;0.60;;;;;;;17.07;58.57;150351.25;4909642;28;20793;-60
2023/09/23 11:03:07;;;;;;;4.67;0.60;;;;;;;17.20;59.40;150383.78;4909367;29;20634;-60
2023/09/23 11:05:39;;;;;;;2.47;0.70;;;;;;;17.36;60.34;150421.31;4915660;28;20664;-59
2023/09/23 11:08:07;;;;;;;2.20;0.70;;;;;;;17.37;59.88;150423.81;4911832;28;20262;-58
2023/09/23 11:10:39;;;;;;;4.93;0.70;;;;;;;17.68;61.02;150500.09;4908261;28;20233;-60
2023/09/23 11:13:06;;;;;;;4.10;0.80;;;;;;;18.06;58.14;150590.22;4896427;29;20218;-60
2023/09/23 11:15:41;;;;;;;3.90;0.87;;;;;;;17.60;56.93;150478.84;4913545;28;20582;-60
2023/09/23 11:18:08;;;;;;;1.73;0.60;;;;;;;17.51;58.04;150458.84;4908042;28;20238;-60
2023/09/23 11:20:40;;;;;;;2.23;0.70;;;;;;;17.62;58.27;150483.84;4904271;28;20237;-59
2023/09/23 11:23:10;;;;;;;1.47;0.60;;;;;;;17.96;56.40;150566.44;4906449;28;20332;-60
2023/09/23 11:25:41;;;;;;;2.07;0.70;;;;;;;18.15;54.86;150612.75;4906527;28;20227;-60
2023/09/23 11:28:08;;;;;;;2.93;1.50;;;;;;;18.33;55.02;150656.53;4908075;29;20224;-60
2023/09/23 11:30:40;;;;;;;3.90;0.70;;;;;;;18.02;55.37;150581.44;4903978;28;20224;-60
2023/09/23 11:33:07;;;;;;;4.30;0.80;;;;;;;18.08;55.50;150595.25;4906258;28;20246;-59
2023/09/23 11:35:38;;;;;;;4.37;1.00;;;;;;;18.40;56.50;150672.81;4905409;28;20223;-59